TimeEST,TemperatureF,Dew PointF,Humidity,Sea Level PressureIn,VisibilityMPH,Wind Direction,Wind SpeedMPH,Gust SpeedMPH,PrecipitationIn,Events,Conditions,WindDirDegrees,DateUTC
12:53 AM,28.9,27.0,92,30.02,6.0,NW,3.5,-,N/A,,Clear,320,2013-12-04 05:53:00
1:53 AM,28.9,27.0,92,30.03,7.0,Calm,Calm,-,N/A,,Clear,0,2013-12-04 06:53:00
2:53 AM,30.0,28.0,92,30.04,6.0,Calm,Calm,-,N/A,,Clear,0,2013-12-04 07:53:00
3:53 AM,30.9,28.9,92,30.04,7.0,NW,3.5,-,N/A,,Clear,320,2013-12-04 08:53:00
4:53 AM,30.9,28.9,92,30.06,6.0,Calm,Calm,-,N/A,,Clear,0,2013-12-04 09:53:00
5:53 AM,30.9,28.9,92,30.07,7.0,Calm,Calm,-,N/A,,Clear,0,2013-12-04 10:53:00
6:53 AM,28.9,27.0,92,30.08,5.0,Calm,Calm,-,N/A,,Clear,0,2013-12-04 11:53:00
7:53 AM,30.9,28.9,92,30.08,3.0,NNW,3.5,-,N/A,,Clear,330,2013-12-04 12:53:00
8:53 AM,36.0,32.0,86,30.10,5.0,Calm,Calm,-,N/A,,Clear,0,2013-12-04 13:53:00
9:53 AM,43.0,35.1,74,30.11,6.0,NNW,3.5,-,N/A,,Haze,330,2013-12-04 14:53:00
10:53 AM,46.0,36.0,68,30.11,6.0,NW,3.5,-,N/A,,Haze,310,2013-12-04 15:53:00
11:53 AM,46.9,37.0,68,30.11,6.0,Calm,Calm,-,N/A,,Haze,0,2013-12-04 16:53:00
12:53 PM,48.9,37.0,64,30.08,6.0,Calm,Calm,-,N/A,,Haze,0,2013-12-04 17:53:00
1:53 PM,50.0,37.9,63,30.06,5.0,Calm,Calm,-,N/A,,Haze,0,2013-12-04 18:53:00
2:53 PM,51.1,39.0,63,30.07,6.0,SE,3.5,-,N/A,,Haze,140,2013-12-04 19:53:00
3:53 PM,51.1,39.9,66,30.07,7.0,Calm,Calm,-,N/A,,Overcast,0,2013-12-04 20:53:00
4:53 PM,50.0,39.9,68,30.09,8.0,Calm,Calm,-,N/A,,Overcast,0,2013-12-04 21:53:00
5:53 PM,48.9,39.9,71,30.11,8.0,Calm,Calm,-,N/A,,Overcast,0,2013-12-04 22:53:00
6:53 PM,48.9,41.0,74,30.12,7.0,Variable,3.5,-,N/A,,Overcast,0,2013-12-04 23:53:00
7:53 PM,48.0,42.1,80,30.12,7.0,Calm,Calm,-,N/A,,Overcast,0,2013-12-05 00:53:00
8:53 PM,44.1,39.9,85,30.12,7.0,Calm,Calm,-,N/A,,Mostly Cloudy,0,2013-12-05 01:53:00
9:39 PM,45.0,41.0,86,30.10,7.0,Calm,Calm,-,N/A,,Overcast,0,2013-12-05 02:39:00
9:53 PM,45.0,41.0,86,30.11,6.0,Calm,Calm,-,N/A,,Overcast,0,2013-12-05 02:53:00
10:13 PM,45.0,41.0,86,30.11,7.0,NW,3.5,-,N/A,,Overcast,310,2013-12-05 03:13:00
10:33 PM,46.0,41.0,83,30.11,7.0,North,3.5,-,N/A,,Overcast,350,2013-12-05 03:33:00
10:53 PM,46.0,41.0,83,30.11,7.0,Calm,Calm,-,N/A,,Overcast,0,2013-12-05 03:53:00
11:53 PM,46.9,42.1,83,30.10,7.0,Calm,Calm,-,N/A,,Overcast,0,2013-12-05 04:53:00